createdAt,value
2023-09-23T00:00:01.284Z,0.00
2023-09-23T00:01:01.278Z,0.00
2023-09-23T00:02:01.436Z,0.00
2023-09-23T00:03:01.432Z,0.00
2023-09-23T00:04:01.439Z,0.00
2023-09-23T00:05:01.283Z,0.00
2023-09-23T00:06:01.254Z,0.00
2023-09-23T00:07:01.211Z,0.00
2023-09-23T00:08:01.248Z,0.00
2023-09-23T00:09:01.231Z,0.00
2023-09-23T00:10:01.204Z,0.00
2023-09-23T00:11:01.223Z,0.00
2023-09-23T00:12:01.192Z,0.00
2023-09-23T00:13:01.207Z,0.00
2023-09-23T00:14:01.223Z,0.00
2023-09-23T00:15:01.192Z,0.00
2023-09-23T00:16:01.880Z,0.00
2023-09-23T00:17:01.257Z,0.00
2023-09-23T00:18:01.128Z,0.00
2023-09-23T00:19:01.087Z,0.00
2023-09-23T00:20:01.128Z,0.00
2023-09-23T00:21:01.075Z,0.00
2023-09-23T00:22:01.050Z,0.00
2023-09-23T00:23:01.083Z,0.00
2023-09-23T00:24:01.022Z,0.00
2023-09-23T00:25:01.975Z,0.00
2023-09-23T00:26:01.154Z,0.00
2023-09-23T00:27:01.098Z,0.00
2023-09-23T00:28:01.003Z,0.00
2023-09-23T00:29:00.998Z,0.00
2023-09-23T00:30:00.953Z,0.00
2023-09-23T00:31:01.028Z,0.00
2023-09-23T00:32:00.993Z,0.00
2023-09-23T00:33:00.985Z,0.00
2023-09-23T00:34:00.937Z,0.00
2023-09-23T00:35:00.929Z,0.00
2023-09-23T00:36:00.934Z,0.00
2023-09-23T00:37:00.914Z,0.00
2023-09-23T00:38:00.941Z,0.00
2023-09-23T00:39:00.913Z,0.00
2023-09-23T00:40:00.887Z,0.00
2023-09-23T00:41:00.866Z,0.00
2023-09-23T00:42:00.852Z,0.00
2023-09-23T00:43:00.854Z,0.00
2023-09-23T00:44:00.845Z,0.00
2023-09-23T00:45:00.834Z,0.00
2023-09-23T00:46:00.823Z,0.00
2023-09-23T00:47:00.814Z,0.00
2023-09-23T00:48:00.820Z,0.00
2023-09-23T00:49:00.782Z,0.00
2023-09-23T00:50:00.789Z,0.00
2023-09-23T00:51:00.762Z,0.00
2023-09-23T00:52:00.725Z,0.00
2023-09-23T00:53:00.828Z,0.00
2023-09-23T00:54:00.758Z,0.00
2023-09-23T00:55:00.738Z,0.00
2023-09-23T00:56:00.792Z,0.00
2023-09-23T00:57:00.682Z,0.00
2023-09-23T00:58:00.789Z,0.00
2023-09-23T00:59:00.751Z,0.00
2023-09-23T01:00:00.731Z,0.00
2023-09-23T01:01:00.666Z,0.00
2023-09-23T01:02:00.867Z,0.00
2023-09-23T01:03:01.180Z,0.00
2023-09-23T01:04:00.753Z,0.00
2023-09-23T01:05:00.664Z,0.00
2023-09-23T01:06:00.582Z,0.00
2023-09-23T01:07:00.597Z,0.00
2023-09-23T01:08:00.640Z,0.00
2023-09-23T01:09:00.591Z,0.00
2023-09-23T01:10:00.600Z,0.00
2023-09-23T01:11:00.539Z,0.00
2023-09-23T01:12:00.545Z,0.00
2023-09-23T01:13:00.573Z,0.00
2023-09-23T01:14:00.548Z,0.00
2023-09-23T01:15:00.557Z,0.00
2023-09-23T01:16:00.527Z,0.00
2023-09-23T01:17:00.538Z,0.00
2023-09-23T01:18:00.517Z,0.00
2023-09-23T01:19:00.504Z,0.00
2023-09-23T01:20:00.520Z,0.00
2023-09-23T01:21:00.427Z,0.00
2023-09-23T01:22:00.442Z,0.00
2023-09-23T01:23:00.496Z,0.00
2023-09-23T01:24:00.396Z,0.00
2023-09-23T01:25:00.418Z,0.00
2023-09-23T01:26:00.439Z,0.00
2023-09-23T01:27:00.385Z,0.00
2023-09-23T01:28:00.392Z,0.00
2023-09-23T01:29:00.360Z,0.00
2023-09-23T01:30:00.364Z,0.00
2023-09-23T01:31:00.372Z,0.00
2023-09-23T01:32:00.386Z,0.00
2023-09-23T01:33:00.380Z,0.00
2023-09-23T01:34:00.373Z,0.00
2023-09-23T01:35:00.335Z,0.00
2023-09-23T01:36:00.313Z,0.00
2023-09-23T01:37:00.491Z,0.00
2023-09-23T01:38:00.290Z,0.00
2023-09-23T01:39:00.271Z,0.00
2023-09-23T01:40:00.229Z,0.00
2023-09-23T01:41:00.306Z,0.00
2023-09-23T01:42:00.224Z,0.00
2023-09-23T01:43:00.243Z,0.00
2023-09-23T01:44:00.233Z,0.00
2023-09-23T01:45:00.227Z,0.00
2023-09-23T01:46:00.223Z,0.00
2023-09-23T01:47:00.275Z,0.00
2023-09-23T01:48:00.348Z,0.00
2023-09-23T01:49:00.159Z,0.00
2023-09-23T01:50:00.217Z,0.00
2023-09-23T01:51:00.159Z,0.00
2023-09-23T01:52:00.110Z,0.00
2023-09-23T01:53:00.214Z,0.00
2023-09-23T01:54:00.116Z,0.00
2023-09-23T01:55:00.113Z,0.00
2023-09-23T01:56:00.146Z,0.00
2023-09-23T01:57:00.056Z,0.00
2023-09-23T01:58:00.047Z,0.00
2023-09-23T01:59:00.091Z,0.00
2023-09-23T02:00:00.079Z,0.00
2023-09-23T02:01:00.079Z,0.00
2023-09-23T02:02:00.199Z,0.00
2023-09-23T02:03:00.147Z,0.00
2023-09-23T02:04:00.103Z,0.00
2023-09-23T02:05:00.106Z,0.00
2023-09-23T02:05:59.964Z,0.00
2023-09-23T02:06:59.977Z,0.00
2023-09-23T02:08:00.003Z,0.00
2023-09-23T02:09:00.014Z,0.00
2023-09-23T02:09:59.965Z,0.00
2023-09-23T02:11:00.087Z,0.00
2023-09-23T02:11:59.938Z,0.00
2023-09-23T02:12:59.933Z,0.00
2023-09-23T02:13:59.950Z,0.00
2023-09-23T02:14:59.872Z,0.00
2023-09-23T02:15:59.898Z,0.00
2023-09-23T02:16:59.949Z,0.00
2023-09-23T02:17:59.903Z,0.00
2023-09-23T02:18:59.877Z,0.00
2023-09-23T02:19:59.920Z,0.00
2023-09-23T02:20:59.836Z,0.00
2023-09-23T02:21:59.847Z,0.00
2023-09-23T02:22:59.890Z,0.00
2023-09-23T02:23:59.861Z,0.00
2023-09-23T02:24:59.785Z,0.00
2023-09-23T02:25:59.860Z,0.00
2023-09-23T02:26:59.810Z,0.00
2023-09-23T02:27:59.769Z,0.00
2023-09-23T02:28:59.850Z,0.00
2023-09-23T02:29:59.798Z,0.00
2023-09-23T02:30:59.750Z,0.00
2023-09-23T02:31:59.753Z,0.00
2023-09-23T02:32:59.770Z,0.00
2023-09-23T02:33:59.720Z,0.00
2023-09-23T02:34:59.723Z,0.00
2023-09-23T02:35:59.686Z,0.00
2023-09-23T02:36:59.689Z,0.00
2023-09-23T02:37:59.752Z,0.00
2023-09-23T02:38:59.660Z,0.00
2023-09-23T02:39:59.652Z,0.00
2023-09-23T02:40:59.659Z,0.00
2023-09-23T02:41:59.624Z,0.00
2023-09-23T02:42:59.620Z,0.00
2023-09-23T02:43:59.646Z,0.00
2023-09-23T02:44:59.610Z,0.00
2023-09-23T02:45:59.605Z,0.00
2023-09-23T02:46:59.675Z,0.00
2023-09-23T02:47:59.713Z,0.00
2023-09-23T02:48:59.556Z,0.00
2023-09-23T02:49:59.613Z,0.00
2023-09-23T02:50:59.507Z,0.00
2023-09-23T02:51:59.541Z,0.00
2023-09-23T02:53:00.062Z,0.00
2023-09-23T02:53:59.485Z,0.00
2023-09-23T02:54:59.500Z,0.00
2023-09-23T02:55:59.578Z,0.00
2023-09-23T02:56:59.484Z,0.00
2023-09-23T02:57:59.474Z,0.00
2023-09-23T02:58:59.518Z,0.00
2023-09-23T02:59:59.448Z,0.00
2023-09-23T03:00:59.415Z,0.00
2023-09-23T03:01:59.554Z,0.00
2023-09-23T03:02:59.533Z,0.00
2023-09-23T03:03:59.469Z,0.00
2023-09-23T03:04:59.513Z,0.00
2023-09-23T03:05:59.459Z,0.00
2023-09-23T03:06:59.348Z,0.00
2023-09-23T03:07:59.711Z,0.00
2023-09-23T03:08:59.418Z,0.00
2023-09-23T03:09:59.357Z,0.00
2023-09-23T03:10:59.378Z,0.00
2023-09-23T03:11:59.303Z,0.00
2023-09-23T03:12:59.311Z,0.00
2023-09-23T03:13:59.319Z,0.00
2023-09-23T03:14:59.284Z,0.00
2023-09-23T03:15:59.347Z,0.00
2023-09-23T03:16:59.269Z,0.00
2023-09-23T03:17:59.267Z,0.00
2023-09-23T03:18:59.255Z,0.00
2023-09-23T03:19:59.271Z,0.00
2023-09-23T03:20:59.225Z,0.00
2023-09-23T03:21:59.217Z,0.00
2023-09-23T03:22:59.227Z,0.00
2023-09-23T03:23:59.194Z,0.00
2023-09-23T03:24:59.230Z,0.00
2023-09-23T03:25:59.165Z,0.00
2023-09-23T03:26:59.158Z,0.00
2023-09-23T03:27:59.196Z,0.00
2023-09-23T03:28:59.171Z,0.00
2023-09-23T03:29:59.709Z,0.00
2023-09-23T03:30:59.092Z,0.00
2023-09-23T03:31:59.188Z,0.00
2023-09-23T03:32:59.177Z,0.00
2023-09-23T03:33:59.099Z,0.00
2023-09-23T03:34:59.102Z,0.00
2023-09-23T03:35:59.079Z,0.00
2023-09-23T03:36:59.058Z,0.00
2023-09-23T03:37:59.080Z,0.00
2023-09-23T03:38:59.135Z,0.00
2023-09-23T03:39:59.022Z,0.00
2023-09-23T03:40:58.992Z,0.00
2023-09-23T03:41:58.996Z,0.00
2023-09-23T03:42:59.001Z,0.00
2023-09-23T03:43:59.039Z,0.00
2023-09-23T03:44:58.992Z,0.00
2023-09-23T03:45:59.045Z,0.00
2023-09-23T03:46:58.949Z,0.00
2023-09-23T03:47:58.990Z,0.00
2023-09-23T03:48:58.907Z,0.00
2023-09-23T03:49:58.983Z,0.00
2023-09-23T03:50:58.929Z,0.00
2023-09-23T03:51:58.904Z,0.00
2023-09-23T03:52:58.896Z,0.00
2023-09-23T03:53:58.878Z,0.00
2023-09-23T03:54:58.885Z,0.00
2023-09-23T03:55:58.861Z,0.00
2023-09-23T03:56:58.840Z,0.00
2023-09-23T03:57:58.851Z,0.00
2023-09-23T03:58:58.832Z,0.00
2023-09-23T03:59:58.828Z,0.00
2023-09-23T04:00:58.778Z,0.00
2023-09-23T04:01:58.861Z,0.00
2023-09-23T04:02:58.838Z,0.00
2023-09-23T04:03:58.826Z,0.00
2023-09-23T04:04:58.807Z,0.00
2023-09-23T04:05:59.297Z,0.00
2023-09-23T04:06:58.751Z,0.00
2023-09-23T04:07:58.772Z,0.00
2023-09-23T04:08:58.698Z,0.00
2023-09-23T04:09:58.743Z,0.00
2023-09-23T04:10:58.735Z,0.00
2023-09-23T04:11:58.690Z,0.00
2023-09-23T04:12:58.683Z,0.00
2023-09-23T04:13:58.689Z,0.00
2023-09-23T04:14:58.643Z,0.00
2023-09-23T04:15:58.687Z,0.00
2023-09-23T04:16:58.686Z,0.00
2023-09-23T04:17:58.712Z,0.00
2023-09-23T04:18:58.628Z,0.00
2023-09-23T04:19:58.604Z,0.00
2023-09-23T04:20:58.625Z,0.00
2023-09-23T04:21:58.560Z,0.00
2023-09-23T04:22:58.607Z,0.00
2023-09-23T04:23:58.581Z,0.00
2023-09-23T04:24:58.562Z,0.00
2023-09-23T04:25:58.579Z,0.00
2023-09-23T04:26:58.515Z,0.00
2023-09-23T04:27:58.538Z,0.00
2023-09-23T04:28:58.540Z,0.00
2023-09-23T04:29:58.490Z,0.00
2023-09-23T04:30:58.522Z,0.00
2023-09-23T04:31:58.487Z,0.00
2023-09-23T04:32:58.567Z,0.00
2023-09-23T04:33:58.482Z,0.00
2023-09-23T04:34:58.514Z,0.00
2023-09-23T04:35:58.468Z,0.00
2023-09-23T04:36:58.419Z,0.00
2023-09-23T04:37:58.506Z,0.00
2023-09-23T04:38:58.422Z,0.00
2023-09-23T04:39:58.462Z,0.00
2023-09-23T04:40:58.427Z,0.00
2023-09-23T04:41:58.343Z,1.00
2023-09-23T04:42:58.349Z,2.00
2023-09-23T04:43:58.349Z,1.00
2023-09-23T04:44:58.351Z,1.00
2023-09-23T04:45:58.323Z,2.00
2023-09-23T04:46:58.291Z,2.00
2023-09-23T04:47:58.254Z,2.00
2023-09-23T04:48:58.276Z,3.00
2023-09-23T04:49:58.284Z,3.00
2023-09-23T04:50:58.215Z,4.00
2023-09-23T04:51:58.252Z,8.00
2023-09-23T04:52:58.241Z,5.00
2023-09-23T04:53:58.281Z,7.00
2023-09-23T04:54:58.176Z,10.00
2023-09-23T04:55:58.235Z,16.00
2023-09-23T04:56:58.174Z,14.00
2023-09-23T04:57:58.193Z,13.00
2023-09-23T04:58:58.220Z,16.00
2023-09-23T04:59:58.142Z,24.00
2023-09-23T05:00:58.155Z,26.00
2023-09-23T05:01:58.146Z,32.00
2023-09-23T05:02:58.152Z,34.00
2023-09-23T05:03:58.142Z,38.00
2023-09-23T05:04:58.193Z,42.00
2023-09-23T05:05:58.193Z,47.00
2023-09-23T05:06:58.113Z,49.00
2023-09-23T05:07:58.081Z,58.00
2023-09-23T05:08:58.062Z,65.00
2023-09-23T05:09:58.046Z,67.00
2023-09-23T05:10:58.125Z,73.00
2023-09-23T05:11:58.038Z,78.00
2023-09-23T05:12:58.040Z,88.00
2023-09-23T05:13:58.013Z,97.00
2023-09-23T05:14:57.996Z,106.00
2023-09-23T05:15:58.000Z,113.00
2023-09-23T05:16:58.004Z,119.00
2023-09-23T05:17:57.988Z,128.00
2023-09-23T05:18:58.002Z,142.00
2023-09-23T05:19:57.975Z,152.00
2023-09-23T05:20:57.908Z,163.00
2023-09-23T05:21:57.920Z,172.00
2023-09-23T05:22:57.953Z,176.00
2023-09-23T05:23:58.433Z,189.00
2023-09-23T05:24:57.943Z,200.00
2023-09-23T05:25:57.923Z,218.00
2023-09-23T05:26:58.170Z,231.00
2023-09-23T05:27:57.860Z,252.00
2023-09-23T05:28:57.849Z,263.00
2023-09-23T05:29:57.853Z,284.00
2023-09-23T05:30:57.894Z,292.00
2023-09-23T05:31:57.828Z,312.00
2023-09-23T05:32:57.941Z,329.00
2023-09-23T05:33:57.794Z,341.00
2023-09-23T05:34:57.828Z,361.00
2023-09-23T05:35:57.891Z,382.00
2023-09-23T05:36:57.759Z,408.00
2023-09-23T05:37:57.761Z,427.00
2023-09-23T05:38:57.749Z,449.00
2023-09-23T05:39:57.755Z,462.00
2023-09-23T05:40:57.792Z,494.00
2023-09-23T05:41:57.730Z,519.00
2023-09-23T05:42:57.743Z,549.00
2023-09-23T05:43:57.746Z,579.00
2023-09-23T05:44:57.720Z,615.00
2023-09-23T05:45:57.691Z,626.00
2023-09-23T05:46:57.799Z,649.00
2023-09-23T05:47:57.661Z,672.00
2023-09-23T05:48:57.649Z,697.00
2023-09-23T05:49:57.745Z,714.00
2023-09-23T05:50:57.596Z,741.00
2023-09-23T05:51:57.615Z,775.00
2023-09-23T05:52:57.640Z,794.00
2023-09-23T05:53:57.581Z,831.00
2023-09-23T05:54:57.608Z,863.00
2023-09-23T05:55:57.561Z,894.00
2023-09-23T05:56:57.574Z,934.00
2023-09-23T05:57:57.532Z,969.00
2023-09-23T05:58:57.580Z,1002.00
2023-09-23T05:59:57.530Z,1030.00
2023-09-23T06:00:57.541Z,1062.00
2023-09-23T06:01:57.535Z,1101.00
2023-09-23T06:02:57.538Z,1142.00
2023-09-23T06:03:57.714Z,1177.00
2023-09-23T06:04:57.512Z,1212.00
2023-09-23T06:05:57.518Z,1249.00
2023-09-23T06:06:57.628Z,1296.00
2023-09-23T06:07:57.585Z,1334.00
2023-09-23T06:08:57.483Z,1380.00
2023-09-23T06:09:57.532Z,1406.00
2023-09-23T06:10:57.479Z,1445.00
2023-09-23T06:11:57.410Z,1483.00
2023-09-23T06:12:57.456Z,1521.00
2023-09-23T06:13:57.411Z,1564.00
2023-09-23T06:14:57.378Z,1594.00
2023-09-23T06:15:57.462Z,1630.00
2023-09-23T06:16:57.424Z,1659.00
2023-09-23T06:17:57.469Z,1697.00
2023-09-23T06:18:57.346Z,1739.00
2023-09-23T06:19:57.380Z,1765.00
2023-09-23T06:20:57.315Z,1798.00
2023-09-23T06:21:57.299Z,1825.00
2023-09-23T06:22:57.353Z,1861.00
2023-09-23T06:23:57.283Z,1878.00
2023-09-23T06:24:57.280Z,1911.00
2023-09-23T06:25:57.324Z,1945.00
2023-09-23T06:26:57.247Z,1965.00
2023-09-23T06:27:57.261Z,1998.00
2023-09-23T06:28:57.241Z,2034.00
2023-09-23T06:29:57.227Z,2061.00
2023-09-23T06:30:57.249Z,2096.00
2023-09-23T06:31:57.227Z,2138.00
2023-09-23T06:32:57.220Z,2170.00
2023-09-23T06:33:57.218Z,2208.00
2023-09-23T06:34:57.216Z,2250.00
2023-09-23T06:35:57.170Z,2287.00
2023-09-23T06:36:57.193Z,2323.00
2023-09-23T06:37:57.942Z,2394.00
2023-09-23T06:38:57.131Z,2417.00
2023-09-23T06:39:57.127Z,2459.00
2023-09-23T06:40:57.243Z,2513.00
2023-09-23T06:41:57.161Z,2569.00
2023-09-23T06:42:57.097Z,2596.00
2023-09-23T06:43:57.110Z,2661.00
2023-09-23T06:44:57.127Z,2707.00
2023-09-23T06:45:57.108Z,2751.00
2023-09-23T06:46:57.172Z,2859.00
2023-09-23T06:47:57.114Z,2882.00
2023-09-23T06:48:57.007Z,2943.00
2023-09-23T06:49:57.087Z,2979.00
2023-09-23T06:50:57.028Z,3023.00
2023-09-23T06:51:56.994Z,3075.00
2023-09-23T06:52:57.013Z,3138.00
2023-09-23T06:53:56.984Z,3190.00
2023-09-23T06:54:56.983Z,3223.00
2023-09-23T06:55:57.120Z,3287.00
2023-09-23T06:56:56.932Z,3308.00
2023-09-23T06:57:56.906Z,3387.00
2023-09-23T06:58:56.960Z,3397.00
2023-09-23T06:59:56.949Z,3454.00
2023-09-23T07:00:56.967Z,3482.00
2023-09-23T07:01:56.987Z,3496.00
2023-09-23T07:02:56.977Z,3585.00
2023-09-23T07:03:56.928Z,3630.00
2023-09-23T07:04:56.956Z,3685.00
2023-09-23T07:05:56.883Z,3692.00
2023-09-23T07:06:56.834Z,3734.00
2023-09-23T07:07:56.873Z,3859.00
2023-09-23T07:08:56.815Z,3882.00
2023-09-23T07:09:56.800Z,3849.00
2023-09-23T07:10:56.908Z,3920.00
2023-09-23T07:11:56.787Z,3938.00
2023-09-23T07:12:56.918Z,3967.00
2023-09-23T07:13:56.899Z,4007.00
2023-09-23T07:14:56.744Z,4021.00
2023-09-23T07:15:56.748Z,4052.00
2023-09-23T07:16:56.781Z,4040.00
2023-09-23T07:17:56.769Z,4108.00
2023-09-23T07:18:56.718Z,4139.00
2023-09-23T07:19:56.695Z,4173.00
2023-09-23T07:20:56.707Z,4169.00
2023-09-23T07:21:56.721Z,4123.00
2023-09-23T07:22:56.743Z,4364.00
2023-09-23T07:23:56.666Z,4550.00
2023-09-23T07:24:56.639Z,4551.00
2023-09-23T07:25:56.655Z,4449.00
2023-09-23T07:26:56.654Z,4475.00
2023-09-23T07:27:56.611Z,4518.00
2023-09-23T07:28:56.635Z,4585.00
2023-09-23T07:29:56.605Z,4642.00
2023-09-23T07:30:56.624Z,4665.00
2023-09-23T07:31:56.673Z,4612.00
2023-09-23T07:32:56.725Z,4472.00
2023-09-23T07:33:56.558Z,4724.00
2023-09-23T07:34:56.618Z,4834.00
2023-09-23T07:35:56.534Z,4768.00
2023-09-23T07:36:56.565Z,4806.00
2023-09-23T07:37:56.536Z,5062.00
2023-09-23T07:38:56.498Z,4813.00
2023-09-23T07:39:56.505Z,4984.00
2023-09-23T07:40:56.553Z,5339.00
2023-09-23T07:41:56.506Z,5108.00
2023-09-23T07:42:56.481Z,4605.00
2023-09-23T07:43:56.524Z,5086.00
2023-09-23T07:44:56.458Z,5211.00
2023-09-23T07:45:56.503Z,4632.00
2023-09-23T07:46:56.433Z,4998.00
2023-09-23T07:47:56.465Z,4967.00
2023-09-23T07:48:56.439Z,4897.00
2023-09-23T07:49:56.440Z,4658.00
2023-09-23T07:50:56.400Z,4738.00
2023-09-23T07:51:56.371Z,4458.00
2023-09-23T07:52:56.394Z,4275.00
2023-09-23T07:53:56.353Z,4308.00
2023-09-23T07:54:56.388Z,4044.00
2023-09-23T07:55:56.433Z,3980.00
2023-09-23T07:56:56.339Z,4064.00
2023-09-23T07:57:56.282Z,4190.00
2023-09-23T07:58:56.340Z,3807.00
2023-09-23T07:59:56.283Z,4199.00
2023-09-23T08:00:56.347Z,4183.00
2023-09-23T08:01:56.316Z,4207.00
2023-09-23T08:02:56.313Z,4464.00
2023-09-23T08:03:56.616Z,4162.00
2023-09-23T08:04:56.314Z,4501.00
2023-09-23T08:05:56.226Z,4211.00
2023-09-23T08:06:56.242Z,4718.00
2023-09-23T08:07:56.262Z,4298.00
2023-09-23T08:08:56.289Z,4369.00
2023-09-23T08:09:56.276Z,4420.00
2023-09-23T08:10:56.194Z,4320.00
2023-09-23T08:11:56.133Z,4432.00
2023-09-23T08:12:56.163Z,4493.00
2023-09-23T08:13:56.210Z,4587.00
2023-09-23T08:14:56.134Z,4475.00
2023-09-23T08:15:56.179Z,4367.00
2023-09-23T08:16:57.309Z,4099.00
2023-09-23T08:17:56.163Z,4219.00
2023-09-23T08:18:56.109Z,4212.00
2023-09-23T08:19:56.171Z,4344.00
2023-09-23T08:20:56.080Z,4304.00
2023-09-23T08:21:56.084Z,4128.00
2023-09-23T08:22:59.019Z,4095.00
2023-09-23T08:23:56.092Z,4367.00
2023-09-23T08:24:56.011Z,4474.00
2023-09-23T08:25:56.003Z,4462.00
2023-09-23T08:26:56.029Z,4638.00
2023-09-23T08:27:56.096Z,4367.00
2023-09-23T08:28:56.020Z,4357.00
2023-09-23T08:29:55.980Z,4399.00
2023-09-23T08:30:55.972Z,4413.00
2023-09-23T08:31:56.057Z,4269.00
2023-09-23T08:32:56.071Z,4485.00
2023-09-23T08:33:55.950Z,4422.00
2023-09-23T08:34:56.116Z,4412.00
2023-09-23T08:35:55.998Z,3928.00
2023-09-23T08:36:55.928Z,4061.00
2023-09-23T08:37:55.976Z,4096.00
2023-09-23T08:38:55.891Z,4299.00
2023-09-23T08:39:55.900Z,3955.00
2023-09-23T08:40:55.909Z,4019.00
2023-09-23T08:41:55.839Z,3963.00
2023-09-23T08:42:55.869Z,3928.00
2023-09-23T08:43:55.866Z,3997.00
2023-09-23T08:44:55.816Z,4010.00
2023-09-23T08:45:55.935Z,4029.00
2023-09-23T08:46:56.005Z,3958.00
2023-09-23T08:47:55.816Z,3923.00
2023-09-23T08:48:55.776Z,3898.00
2023-09-23T08:49:55.946Z,3813.00
2023-09-23T08:50:55.769Z,3766.00
2023-09-23T08:51:55.753Z,3793.00
2023-09-23T08:52:55.926Z,3777.00
2023-09-23T08:53:55.744Z,3799.00
2023-09-23T08:54:55.688Z,3620.00
2023-09-23T08:55:55.814Z,3831.00
2023-09-23T08:56:56.014Z,3824.00
2023-09-23T08:57:55.676Z,3862.00
2023-09-23T08:58:55.725Z,3851.00
2023-09-23T08:59:55.640Z,3861.00
2023-09-23T09:00:55.687Z,3762.00
2023-09-23T09:01:55.664Z,3774.00
2023-09-23T09:02:55.678Z,4236.00
2023-09-23T09:03:55.634Z,3873.00
2023-09-23T09:04:55.741Z,3848.00
2023-09-23T09:05:55.690Z,3552.00
2023-09-23T09:06:55.591Z,4391.00
2023-09-23T09:07:55.632Z,3844.00
2023-09-23T09:08:55.569Z,3739.00
2023-09-23T09:09:55.636Z,4036.00
2023-09-23T09:10:55.670Z,3796.00
2023-09-23T09:11:55.552Z,3894.00
2023-09-23T09:12:58.075Z,3842.00
2023-09-23T09:13:55.565Z,3862.00
2023-09-23T09:14:55.508Z,3846.00
2023-09-23T09:15:55.592Z,3832.00
2023-09-23T09:16:55.555Z,3839.00
2023-09-23T09:17:55.495Z,3802.00
2023-09-23T09:18:55.476Z,3841.00
2023-09-23T09:19:55.603Z,3792.00
2023-09-23T09:20:55.479Z,3846.00
2023-09-23T09:21:55.442Z,3855.00
2023-09-23T09:22:55.482Z,3753.00
2023-09-23T09:23:55.425Z,3883.00
2023-09-23T09:24:55.393Z,3756.00
2023-09-23T09:25:55.432Z,3848.00
2023-09-23T09:26:55.385Z,3875.00
2023-09-23T09:27:55.447Z,3902.00
2023-09-23T09:28:55.398Z,3866.00
2023-09-23T09:30:07.236Z,3871.00
2023-09-23T09:30:55.360Z,3901.00
2023-09-23T09:31:55.356Z,3897.00
2023-09-23T09:32:55.415Z,3891.00
2023-09-23T09:33:55.326Z,3891.00
2023-09-23T09:34:55.342Z,3905.00
2023-09-23T09:35:55.304Z,3929.00
2023-09-23T09:36:55.281Z,3971.00
2023-09-23T09:38:03.557Z,3828.00
2023-09-23T09:38:55.277Z,3920.00
2023-09-23T09:39:55.329Z,3743.00
2023-09-23T09:40:55.237Z,3735.00
2023-09-23T09:41:55.207Z,4160.00
2023-09-23T09:42:55.398Z,4104.00
2023-09-23T09:43:55.200Z,4048.00
2023-09-23T09:44:55.193Z,4039.00
2023-09-23T09:45:55.196Z,3967.00
2023-09-23T09:46:55.271Z,3963.00
2023-09-23T09:47:55.273Z,3901.00
2023-09-23T09:48:55.125Z,3905.00
2023-09-23T09:49:55.159Z,3927.00
2023-09-23T09:50:55.132Z,3904.00
2023-09-23T09:51:55.169Z,3939.00
2023-09-23T09:52:55.189Z,3925.00
2023-09-23T09:53:55.122Z,3910.00
2023-09-23T09:54:55.072Z,3952.00
2023-09-23T09:55:55.119Z,3982.00
2023-09-23T09:56:55.122Z,3901.00
2023-09-23T09:57:55.076Z,4049.00
2023-09-23T09:58:55.084Z,3977.00
2023-09-23T09:59:55.016Z,3981.00
2023-09-23T10:00:55.076Z,3893.00
2023-09-23T10:01:55.118Z,3748.00
2023-09-23T10:02:55.057Z,4149.00
2023-09-23T10:03:55.037Z,4045.00
2023-09-23T10:04:55.108Z,4090.00
2023-09-23T10:05:54.991Z,3933.00
2023-09-23T10:06:54.969Z,4220.00
2023-09-23T10:07:55.016Z,3951.00
2023-09-23T10:08:54.969Z,3956.00
2023-09-23T10:09:54.959Z,3844.00
2023-09-23T10:10:54.939Z,4193.00
2023-09-23T10:11:55.029Z,4108.00
2023-09-23T10:12:54.886Z,4087.00
2023-09-23T10:13:55.004Z,5038.00
2023-09-23T10:14:55.008Z,2887.00
2023-09-23T10:15:54.933Z,3985.00
2023-09-23T10:16:54.917Z,3982.00
2023-09-23T10:17:55.049Z,3999.00
2023-09-23T10:18:54.975Z,4103.00
2023-09-23T10:19:55.051Z,4206.00
2023-09-23T10:20:54.820Z,4199.00
2023-09-23T10:21:56.184Z,4135.00
2023-09-23T10:22:54.830Z,4260.00
2023-09-23T10:23:54.801Z,4831.00
2023-09-23T10:24:54.808Z,6749.00
2023-09-23T10:25:54.770Z,4362.00
2023-09-23T10:26:54.780Z,1924.00
2023-09-23T10:27:54.752Z,5284.00
2023-09-23T10:28:54.794Z,5401.00
2023-09-23T10:29:56.188Z,7148.00
2023-09-23T10:30:54.762Z,3548.00
2023-09-23T10:31:54.737Z,3862.00
2023-09-23T10:32:54.724Z,7329.00
2023-09-23T10:33:54.761Z,4440.00
2023-09-23T10:34:54.746Z,4191.00
2023-09-23T10:35:54.695Z,1831.00
2023-09-23T10:36:54.674Z,5562.00
2023-09-23T10:37:54.701Z,6210.00
2023-09-23T10:38:54.653Z,6514.00
2023-09-23T10:39:54.631Z,2669.00
2023-09-23T10:40:54.680Z,6058.00
2023-09-23T10:41:54.583Z,5002.00
2023-09-23T10:42:54.600Z,3976.00
2023-09-23T10:43:54.606Z,3955.00
2023-09-23T10:44:54.586Z,2708.00
2023-09-23T10:45:54.665Z,5488.00
2023-09-23T10:46:54.669Z,5195.00
2023-09-23T10:47:54.567Z,5147.00
2023-09-23T10:48:54.563Z,4896.00
2023-09-23T10:49:54.612Z,5047.00
2023-09-23T10:50:54.490Z,5181.00
2023-09-23T10:51:54.500Z,5018.00
2023-09-23T10:52:54.566Z,7011.00
2023-09-23T10:53:54.459Z,3414.00
2023-09-23T10:54:54.472Z,5700.00
2023-09-23T10:55:54.605Z,5781.00
2023-09-23T10:56:54.449Z,4293.00
2023-09-23T10:57:54.462Z,4369.00
2023-09-23T10:58:54.506Z,4502.00
2023-09-23T10:59:54.430Z,4632.00
2023-09-23T11:00:54.405Z,4353.00
2023-09-23T11:01:54.557Z,2058.00
2023-09-23T11:02:54.737Z,6576.00
2023-09-23T11:03:54.480Z,4240.00
2023-09-23T11:04:54.500Z,3121.00
2023-09-23T11:05:54.365Z,5330.00
2023-09-23T11:06:54.420Z,3955.00
2023-09-23T11:07:54.504Z,3873.00
2023-09-23T11:08:54.422Z,3715.00
2023-09-23T11:09:54.386Z,1142.00
2023-09-23T11:10:54.391Z,4567.00
2023-09-23T11:11:54.294Z,4352.00
2023-09-23T11:12:54.288Z,4377.00
2023-09-23T11:13:54.293Z,4375.00
2023-09-23T11:14:54.240Z,4394.00
2023-09-23T11:15:54.310Z,4407.00
2023-09-23T11:16:54.267Z,4445.00
2023-09-23T11:17:54.270Z,4540.00
2023-09-23T11:18:54.220Z,5540.00
2023-09-23T11:19:54.228Z,3846.00
2023-09-23T11:20:54.187Z,3227.00
2023-09-23T11:21:54.200Z,6397.00
2023-09-23T11:22:54.176Z,3601.00
2023-09-23T11:23:54.157Z,5080.00
2023-09-23T11:24:54.174Z,4158.00
2023-09-23T11:25:54.191Z,4969.00
2023-09-23T11:26:54.113Z,4700.00
2023-09-23T11:27:54.167Z,4383.00
2023-09-23T11:28:54.138Z,2341.00
2023-09-23T11:29:54.166Z,5174.00
2023-09-23T11:30:54.129Z,5453.00
2023-09-23T11:31:54.110Z,4648.00
2023-09-23T11:32:54.230Z,5766.00
2023-09-23T11:33:54.077Z,3831.00
2023-09-23T11:34:54.084Z,5092.00
2023-09-23T11:35:54.090Z,5144.00
2023-09-23T11:36:54.024Z,6466.00
2023-09-23T11:37:54.032Z,3576.00
2023-09-23T11:38:54.170Z,4231.00
2023-09-23T11:39:54.019Z,5634.00
2023-09-23T11:40:54.014Z,3461.00
2023-09-23T11:41:54.014Z,5860.00
2023-09-23T11:42:53.956Z,3864.00
2023-09-23T11:43:53.972Z,3668.00
2023-09-23T11:44:53.943Z,3970.00
2023-09-23T11:45:53.939Z,3945.00
2023-09-23T11:46:53.993Z,3911.00
2023-09-23T11:47:54.010Z,3786.00
2023-09-23T11:48:53.920Z,3721.00
2023-09-23T11:49:54.754Z,3640.00
2023-09-23T11:50:54.024Z,4460.00
2023-09-23T11:51:53.902Z,2752.00
2023-09-23T11:52:53.876Z,5144.00
2023-09-23T11:53:53.905Z,3720.00
2023-09-23T11:54:57.314Z,3984.00
2023-09-23T11:55:53.850Z,3785.00
2023-09-23T11:56:53.828Z,3817.00
2023-09-23T11:57:53.875Z,3601.00
2023-09-23T11:59:07.155Z,3603.00
2023-09-23T11:59:53.837Z,3530.00
2023-09-23T12:00:53.778Z,3511.00
2023-09-23T12:01:53.787Z,3562.00
2023-09-23T12:02:53.909Z,3575.00
2023-09-23T12:03:53.892Z,3516.00
2023-09-23T12:04:53.814Z,3519.00
2023-09-23T12:05:55.048Z,3551.00
2023-09-23T12:06:53.837Z,3588.00
2023-09-23T12:07:53.756Z,3636.00
2023-09-23T12:08:53.716Z,3582.00
2023-09-23T12:09:53.691Z,3478.00
2023-09-23T12:10:53.695Z,3447.00
2023-09-23T12:11:53.699Z,3555.00
2023-09-23T12:12:53.669Z,3663.00
2023-09-23T12:13:53.676Z,3738.00
2023-09-23T12:14:53.614Z,3634.00
2023-09-23T12:15:53.659Z,3620.00
2023-09-23T12:16:53.697Z,3636.00
2023-09-23T12:17:53.646Z,3605.00
2023-09-23T12:18:53.601Z,3589.00
2023-09-23T12:19:53.567Z,3491.00
2023-09-23T12:20:53.601Z,3346.00
2023-09-23T12:21:53.561Z,3233.00
2023-09-23T12:22:53.587Z,3262.00
2023-09-23T12:23:53.591Z,3348.00
2023-09-23T12:24:53.606Z,3361.00
2023-09-23T12:25:53.529Z,3378.00
2023-09-23T12:26:53.514Z,3541.00
2023-09-23T12:27:53.558Z,3870.00
2023-09-23T12:28:53.506Z,3937.00
2023-09-23T12:29:53.505Z,3940.00
2023-09-23T12:30:53.496Z,3792.00
2023-09-23T12:31:53.454Z,3802.00
2023-09-23T12:32:53.480Z,3925.00
2023-09-23T12:33:53.449Z,3966.00
2023-09-23T12:34:53.406Z,4015.00